createdAt,value
2018-03-26T00:02:13.204Z,26.90
2018-03-26T00:04:40.822Z,27.70
2018-03-26T00:07:08.548Z,26.90
2018-03-26T00:09:36.239Z,28.33
2018-03-26T00:12:03.866Z,27.23
2018-03-26T00:14:31.554Z,26.60
2018-03-26T00:16:59.213Z,27.17
2018-03-26T00:19:27.394Z,28.83
2018-03-26T00:21:55.901Z,27.63
2018-03-26T00:24:24.408Z,28.30
2018-03-26T00:26:57.296Z,28.13
2018-03-26T00:29:25.038Z,28.30
2018-03-26T00:31:53.008Z,27.93
2018-03-26T00:34:20.646Z,29.07
2018-03-26T00:36:48.282Z,28.87
2018-03-26T00:39:15.941Z,28.23
2018-03-26T00:41:43.769Z,26.60
2018-03-26T00:44:11.491Z,26.60
2018-03-26T00:46:39.128Z,26.93
2018-03-26T00:49:06.859Z,27.00
2018-03-26T00:51:34.499Z,26.80
2018-03-26T00:54:02.117Z,26.13
2018-03-26T00:56:30.499Z,26.07
2018-03-26T00:58:58.112Z,27.10
2018-03-26T01:01:25.782Z,25.77
2018-03-26T01:03:53.445Z,25.67
2018-03-26T01:06:21.090Z,25.07
2018-03-26T01:08:49.589Z,24.77
2018-03-26T01:11:17.210Z,26.13
2018-03-26T01:13:44.946Z,25.87
2018-03-26T01:16:12.845Z,28.13
2018-03-26T01:18:40.703Z,28.60
2018-03-26T01:21:08.365Z,26.77
2018-03-26T01:23:35.997Z,27.60
2018-03-26T01:26:04.380Z,26.87
2018-03-26T01:28:32.147Z,28.33
2018-03-26T01:30:59.916Z,27.97
2018-03-26T01:33:27.564Z,28.50
2018-03-26T01:35:55.195Z,28.23
2018-03-26T01:38:22.942Z,28.00
2018-03-26T01:40:50.559Z,27.73
2018-03-26T01:43:19.030Z,27.67
2018-03-26T01:45:46.699Z,28.27
2018-03-26T01:48:14.379Z,26.77
2018-03-26T01:50:42.125Z,28.10
2018-03-26T01:53:09.741Z,28.63
2018-03-26T01:55:37.493Z,27.33
2018-03-26T01:58:05.130Z,27.00
2018-03-26T02:00:32.804Z,26.90
2018-03-26T02:03:01.218Z,25.53
2018-03-26T02:05:28.868Z,27.10
2018-03-26T02:07:56.652Z,25.77
2018-03-26T02:10:24.350Z,26.77
2018-03-26T02:12:52.645Z,27.23
2018-03-26T02:15:21.038Z,25.30
2018-03-26T02:17:51.891Z,26.07
2018-03-26T02:20:19.548Z,27.23
2018-03-26T02:22:47.206Z,26.30
2018-03-26T02:25:14.834Z,26.23
2018-03-26T02:27:42.481Z,26.20
2018-03-26T02:30:12.414Z,26.67
2018-03-26T02:32:40.097Z,26.97
2018-03-26T02:35:08.581Z,27.30
2018-03-26T02:37:36.323Z,27.00
2018-03-26T02:40:04.782Z,25.63
2018-03-26T02:42:32.467Z,25.97
2018-03-26T02:45:00.862Z,27.47
2018-03-26T02:47:28.493Z,27.37
2018-03-26T02:49:56.137Z,24.73
2018-03-26T02:52:23.948Z,27.23
2018-03-26T02:54:53.987Z,25.73
2018-03-26T02:57:21.636Z,27.03
2018-03-26T02:59:49.338Z,28.37
2018-03-26T03:02:17.104Z,26.50
2018-03-26T03:04:44.755Z,28.03
2018-03-26T03:07:12.574Z,27.03
2018-03-26T03:09:41.108Z,27.63
2018-03-26T03:12:08.828Z,26.83
2018-03-26T03:14:36.620Z,26.97
2018-03-26T03:17:05.103Z,27.07
2018-03-26T03:19:33.067Z,26.10
2018-03-26T03:22:00.831Z,27.63
2018-03-26T03:24:29.482Z,25.50
2018-03-26T03:26:57.093Z,26.07
2018-03-26T03:29:24.722Z,27.87
2018-03-26T03:31:52.503Z,27.37
2018-03-26T03:34:20.255Z,25.53
2018-03-26T03:36:47.871Z,27.00
2018-03-26T03:39:15.587Z,27.40
2018-03-26T03:41:43.486Z,26.87
2018-03-26T03:44:11.125Z,27.97
2018-03-26T03:46:38.849Z,26.53
2018-03-26T03:49:06.593Z,28.20
2018-03-26T03:51:34.234Z,28.43
2018-03-26T03:54:01.896Z,29.93
2018-03-26T03:56:29.556Z,30.03
2018-03-26T03:58:57.292Z,30.30
2018-03-26T04:01:26.367Z,29.53
2018-03-26T04:03:54.040Z,31.60
2018-03-26T04:06:21.686Z,29.13
2018-03-26T04:08:49.357Z,29.37
2018-03-26T04:11:17.003Z,28.93
2018-03-26T04:13:44.639Z,31.27
2018-03-26T04:16:12.635Z,32.00
2018-03-26T04:18:40.311Z,30.90
2018-03-26T04:21:07.961Z,31.10
2018-03-26T04:23:35.855Z,30.47
2018-03-26T04:26:03.454Z,30.90
2018-03-26T04:28:31.456Z,34.13
2018-03-26T04:30:59.087Z,32.90
2018-03-26T04:33:26.754Z,33.10
2018-03-26T04:35:54.431Z,31.93
2018-03-26T04:38:22.076Z,31.57
2018-03-26T04:40:49.740Z,31.67
2018-03-26T04:43:17.359Z,30.60
2018-03-26T04:45:45.757Z,31.00
2018-03-26T04:48:13.454Z,31.77
2018-03-26T04:50:41.122Z,31.90
2018-03-26T04:53:08.799Z,32.20
2018-03-26T04:55:36.514Z,32.87
2018-03-26T04:58:04.278Z,31.90
2018-03-26T05:00:32.074Z,32.53
2018-03-26T05:02:59.723Z,33.40
2018-03-26T05:05:29.153Z,32.57
2018-03-26T05:07:57.756Z,32.90
2018-03-26T05:10:26.136Z,33.60
2018-03-26T05:12:54.553Z,32.67
2018-03-26T05:15:22.256Z,33.80
2018-03-26T05:17:49.944Z,34.07
2018-03-26T05:20:18.513Z,32.50
2018-03-26T05:22:46.171Z,31.67
2018-03-26T05:25:13.872Z,30.57
2018-03-26T05:27:41.545Z,35.53
2018-03-26T05:30:09.215Z,34.60
2018-03-26T05:32:36.940Z,34.00
2018-03-26T05:35:05.481Z,34.20
2018-03-26T05:37:33.095Z,32.43
2018-03-26T05:40:00.750Z,33.73
2018-03-26T05:42:29.194Z,31.50
2018-03-26T05:44:56.852Z,31.27
2018-03-26T05:47:24.575Z,32.17
2018-03-26T05:49:52.324Z,30.97
2018-03-26T05:52:19.995Z,31.27
2018-03-26T05:54:47.657Z,29.40
2018-03-26T05:57:16.545Z,32.13
2018-03-26T05:59:44.185Z,28.67
2018-03-26T06:02:12.686Z,30.17
2018-03-26T06:04:40.351Z,28.07
2018-03-26T06:07:08.655Z,28.63
2018-03-26T06:09:36.683Z,28.33
2018-03-26T06:12:04.312Z,28.17
2018-03-26T06:14:32.044Z,26.63
2018-03-26T06:17:10.574Z,26.77
2018-03-26T06:19:38.240Z,25.40
2018-03-26T06:22:05.972Z,26.87
2018-03-26T06:24:33.598Z,24.57
2018-03-26T06:27:02.112Z,25.83
2018-03-26T06:29:31.432Z,25.33
2018-03-26T06:31:59.255Z,25.97
2018-03-26T06:34:26.915Z,25.07
2018-03-26T06:37:09.449Z,25.57
2018-03-26T06:39:37.238Z,26.33
2018-03-26T06:42:04.913Z,25.10
2018-03-26T06:44:32.677Z,25.77
2018-03-26T06:47:00.375Z,25.97
2018-03-26T06:49:28.001Z,26.40
2018-03-26T06:51:55.875Z,27.53
2018-03-26T06:54:23.529Z,25.70
2018-03-26T06:56:51.215Z,25.83
2018-03-26T06:59:19.731Z,26.00
2018-03-26T07:01:47.430Z,25.63
2018-03-26T07:04:15.159Z,25.40
2018-03-26T07:06:42.815Z,24.67
2018-03-26T07:09:10.482Z,25.57
2018-03-26T07:11:38.805Z,25.90
2018-03-26T07:14:06.531Z,25.40
2018-03-26T07:16:34.198Z,26.10
2018-03-26T07:19:01.883Z,27.07
2018-03-26T07:21:29.654Z,28.33
2018-03-26T07:23:57.314Z,28.77
2018-03-26T07:26:25.019Z,28.37
2018-03-26T07:28:52.761Z,28.40
2018-03-26T07:31:20.383Z,30.40
2018-03-26T07:33:48.308Z,29.70
2018-03-26T07:36:15.928Z,28.93
2018-03-26T07:38:44.730Z,31.53
2018-03-26T07:41:12.572Z,29.73
2018-03-26T07:43:40.345Z,30.13
2018-03-26T07:46:08.861Z,30.33
2018-03-26T07:48:36.502Z,31.33
2018-03-26T07:51:04.983Z,30.57
2018-03-26T07:53:32.690Z,29.83
2018-03-26T07:56:00.329Z,32.43
2018-03-26T07:58:28.062Z,32.07
2018-03-26T08:00:55.689Z,30.97
2018-03-26T08:03:24.136Z,30.47
2018-03-26T08:05:51.953Z,32.43
2018-03-26T08:08:19.768Z,32.43
2018-03-26T08:10:47.515Z,33.93
2018-03-26T08:13:15.238Z,35.20
2018-03-26T08:15:43.104Z,35.67
2018-03-26T08:18:10.751Z,37.63
2018-03-26T08:20:38.583Z,35.70
2018-03-26T08:23:06.221Z,37.37
2018-03-26T08:25:33.932Z,36.63
2018-03-26T08:28:01.607Z,36.90
2018-03-26T08:30:29.272Z,37.67
2018-03-26T08:32:56.948Z,35.73
2018-03-26T08:35:24.612Z,36.37
2018-03-26T08:37:52.733Z,34.90
2018-03-26T08:40:20.482Z,33.87
2018-03-26T08:42:48.144Z,34.80
2018-03-26T08:45:16.574Z,35.83
2018-03-26T08:47:44.242Z,32.67
2018-03-26T08:50:11.947Z,33.33
2018-03-26T08:52:39.666Z,36.77
2018-03-26T08:55:07.333Z,35.60
2018-03-26T08:57:35.465Z,34.60
2018-03-26T09:00:03.124Z,31.57
2018-03-26T09:02:30.782Z,32.47
2018-03-26T09:04:58.430Z,31.60
2018-03-26T09:07:26.154Z,31.17
2018-03-26T09:09:53.836Z,30.90
2018-03-26T09:12:23.681Z,32.97
2018-03-26T09:14:51.432Z,34.80
2018-03-26T09:17:19.851Z,34.83
2018-03-26T09:19:47.475Z,36.73
2018-03-26T09:22:15.181Z,36.87
2018-03-26T09:24:43.025Z,36.43
2018-03-26T09:27:10.796Z,35.13
2018-03-26T09:29:38.541Z,35.33
2018-03-26T09:32:06.136Z,35.60
2018-03-26T09:34:35.122Z,35.97
2018-03-26T09:37:02.903Z,37.07
2018-03-26T09:39:30.657Z,37.10
2018-03-26T09:41:58.323Z,37.53
2018-03-26T09:44:26.086Z,35.03
2018-03-26T09:46:54.001Z,35.53
2018-03-26T09:49:21.766Z,36.23
2018-03-26T09:51:49.510Z,37.23
2018-03-26T09:54:17.971Z,37.57
2018-03-26T09:56:46.629Z,37.57
2018-03-26T09:59:14.258Z,35.93
2018-03-26T10:01:47.642Z,35.77
2018-03-26T10:04:16.103Z,34.77
2018-03-26T10:06:45.172Z,32.87
2018-03-26T10:09:12.872Z,36.13
2018-03-26T10:11:40.538Z,34.53
2018-03-26T10:14:09.082Z,36.13
2018-03-26T10:16:36.687Z,35.73
2018-03-26T10:19:05.092Z,36.27
2018-03-26T10:21:35.170Z,35.90
2018-03-26T10:24:03.580Z,37.20
2018-03-26T10:26:31.218Z,35.23
2018-03-26T10:28:59.644Z,36.77
2018-03-26T10:31:27.297Z,36.80
2018-03-26T10:33:56.494Z,34.53
2018-03-26T10:36:24.250Z,37.10
2018-03-26T10:38:51.899Z,36.80
2018-03-26T10:41:19.871Z,36.60
2018-03-26T10:43:47.554Z,38.30
2018-03-26T10:46:15.244Z,37.33
2018-03-26T10:48:43.888Z,35.13
2018-03-26T10:51:11.545Z,35.80
2018-03-26T10:53:40.006Z,35.43
2018-03-26T10:56:08.527Z,33.13
2018-03-26T10:58:36.994Z,32.47
2018-03-26T11:01:04.671Z,34.43
2018-03-26T11:03:32.393Z,34.53
2018-03-26T11:06:00.088Z,33.37
2018-03-26T11:08:27.785Z,34.23
2018-03-26T11:10:56.214Z,34.13
2018-03-26T11:13:25.063Z,32.20
2018-03-26T11:15:53.450Z,33.73
2018-03-26T11:18:21.669Z,33.93
2018-03-26T11:20:49.331Z,34.07
2018-03-26T11:23:17.744Z,32.50
2018-03-26T11:25:45.496Z,33.87
2018-03-26T11:28:13.140Z,33.20
2018-03-26T11:30:40.813Z,32.37
2018-03-26T11:33:08.442Z,33.30
2018-03-26T11:35:37.012Z,33.97
2018-03-26T11:38:04.950Z,32.60
2018-03-26T11:40:32.690Z,30.93
2018-03-26T11:43:01.704Z,32.23
2018-03-26T11:45:30.972Z,31.33
2018-03-26T11:47:58.682Z,30.70
2018-03-26T11:50:26.360Z,31.63
2018-03-26T11:52:54.085Z,31.97
2018-03-26T11:55:21.788Z,31.00
2018-03-26T11:57:49.447Z,32.40
2018-03-26T12:00:17.133Z,30.87
2018-03-26T12:02:45.622Z,31.97
2018-03-26T12:05:13.359Z,33.63
2018-03-26T12:07:41.017Z,33.40
2018-03-26T12:10:09.958Z,32.63
2018-03-26T12:12:37.589Z,31.13
2018-03-26T12:15:05.969Z,31.10
2018-03-26T12:17:34.415Z,32.03
2018-03-26T12:20:14.007Z,31.17
2018-03-26T12:22:41.671Z,32.30
2018-03-26T12:25:25.406Z,31.23
2018-03-26T12:28:04.890Z,31.87
2018-03-26T12:30:34.239Z,31.63
2018-03-26T12:33:01.970Z,33.97
2018-03-26T12:35:41.441Z,31.33
2018-03-26T12:38:09.462Z,34.27
2018-03-26T12:40:47.910Z,33.43
2018-03-26T12:43:16.719Z,35.93
2018-03-26T12:45:56.281Z,33.70
2018-03-26T12:48:23.974Z,33.83
2018-03-26T12:51:03.496Z,33.57
2018-03-26T12:53:31.207Z,34.83
2018-03-26T12:56:00.587Z,34.87
2018-03-26T12:58:40.106Z,35.10
2018-03-26T13:01:19.599Z,35.93
2018-03-26T13:03:47.266Z,34.00
2018-03-26T13:06:14.983Z,35.03
2018-03-26T13:08:42.722Z,35.40
2018-03-26T13:11:10.372Z,34.73
2018-03-26T13:13:38.030Z,34.27
2018-03-26T13:16:05.714Z,33.00
2018-03-26T13:18:33.336Z,35.73
2018-03-26T13:21:00.998Z,36.77
2018-03-26T13:23:28.676Z,34.03
2018-03-26T13:25:57.357Z,33.77
2018-03-26T13:28:25.017Z,33.40
2018-03-26T13:30:52.802Z,36.37
2018-03-26T13:33:20.499Z,34.80
2018-03-26T13:35:48.170Z,35.20
2018-03-26T13:38:15.847Z,35.07
2018-03-26T13:40:43.471Z,34.47
2018-03-26T13:43:11.440Z,34.90
2018-03-26T13:45:39.836Z,36.87
2018-03-26T13:48:07.473Z,35.50
2018-03-26T13:50:35.138Z,36.37
2018-03-26T13:53:03.069Z,35.77
2018-03-26T13:55:30.742Z,37.10
2018-03-26T13:57:58.411Z,36.67
2018-03-26T14:00:26.124Z,36.13
2018-03-26T14:02:54.513Z,34.83
2018-03-26T14:05:22.327Z,34.97
2018-03-26T14:07:50.666Z,36.73
2018-03-26T14:10:30.325Z,35.53
2018-03-26T14:13:09.898Z,35.97
2018-03-26T14:15:49.500Z,36.90
2018-03-26T14:18:17.105Z,36.43
2018-03-26T14:20:44.795Z,38.67
2018-03-26T14:23:13.237Z,36.57
2018-03-26T14:25:42.464Z,39.40
2018-03-26T14:28:10.823Z,37.27
2018-03-26T14:30:38.557Z,37.10
2018-03-26T14:33:06.249Z,35.80
2018-03-26T14:35:42.471Z,36.27
2018-03-26T14:38:10.195Z,37.90
2018-03-26T14:40:38.730Z,37.23
2018-03-26T14:43:06.428Z,36.90
2018-03-26T14:45:34.838Z,36.47
2018-03-26T14:48:02.457Z,37.77
2018-03-26T14:50:30.134Z,38.43
2018-03-26T14:52:58.546Z,34.40
2018-03-26T14:55:26.234Z,36.37
2018-03-26T14:57:53.946Z,37.20
2018-03-26T15:00:21.733Z,35.03
2018-03-26T15:02:49.665Z,35.13
2018-03-26T15:05:18.113Z,37.43
2018-03-26T15:07:45.894Z,38.33
2018-03-26T15:10:13.551Z,37.40
2018-03-26T15:12:41.282Z,38.47
2018-03-26T15:15:08.938Z,37.30
2018-03-26T15:17:36.625Z,36.33
2018-03-26T15:20:04.280Z,35.83
2018-03-26T15:22:31.959Z,36.73
2018-03-26T15:24:59.694Z,37.17
2018-03-26T15:27:28.282Z,35.13
2018-03-26T15:29:56.733Z,35.93
2018-03-26T15:32:24.380Z,37.13
2018-03-26T15:34:53.426Z,37.07
2018-03-26T15:37:21.091Z,37.93
2018-03-26T15:39:48.728Z,36.83
2018-03-26T15:42:16.414Z,37.00
2018-03-26T15:44:44.797Z,35.80
2018-03-26T15:47:12.556Z,35.87
2018-03-26T15:49:40.236Z,35.53
2018-03-26T15:52:09.344Z,35.17
2018-03-26T15:54:37.791Z,32.97
2018-03-26T15:57:05.593Z,34.87
2018-03-26T15:59:34.040Z,34.53
2018-03-26T16:02:01.172Z,34.97
2018-03-26T16:04:28.858Z,33.37
2018-03-26T16:06:56.602Z,32.93
2018-03-26T16:09:24.882Z,33.83
2018-03-26T16:11:52.537Z,35.10
2018-03-26T16:14:20.213Z,33.27
2018-03-26T16:16:47.940Z,31.90
2018-03-26T16:19:15.610Z,33.13
2018-03-26T16:21:43.293Z,32.27
2018-03-26T16:24:10.949Z,32.90
2018-03-26T16:26:39.495Z,31.53
2018-03-26T16:29:07.159Z,31.63
2018-03-26T16:31:35.524Z,31.93
2018-03-26T16:34:03.246Z,30.43
2018-03-26T16:36:30.905Z,32.00
2018-03-26T16:38:58.631Z,32.83
2018-03-26T16:41:38.102Z,31.93
2018-03-26T16:44:05.820Z,30.20
2018-03-26T16:46:33.603Z,31.50
2018-03-26T16:49:01.321Z,32.90
2018-03-26T16:51:28.959Z,33.30
2018-03-26T16:56:30.536Z,31.67
2018-03-26T16:58:58.656Z,31.53
2018-03-26T17:01:26.332Z,33.03
2018-03-26T17:03:53.959Z,32.73
2018-03-26T17:06:22.853Z,33.07
2018-03-26T17:08:52.554Z,31.73
2018-03-26T17:11:21.000Z,31.93
2018-03-26T17:13:49.364Z,31.53
2018-03-26T17:16:17.213Z,32.47
2018-03-26T17:18:44.845Z,33.43
2018-03-26T17:21:13.473Z,33.00
2018-03-26T17:23:42.569Z,33.87
2018-03-26T17:26:10.274Z,32.87
2018-03-26T17:28:38.164Z,34.07
2018-03-26T17:31:05.810Z,32.83
2018-03-26T17:33:34.254Z,33.67
2018-03-26T17:36:02.019Z,32.97
2018-03-26T17:38:29.671Z,32.77
2018-03-26T17:40:58.111Z,33.27
2018-03-26T17:43:25.833Z,42.73
2018-03-26T17:45:53.491Z,37.30
2018-03-26T17:48:22.346Z,36.50
2018-03-26T17:50:50.106Z,35.20
2018-03-26T17:53:17.918Z,34.70
2018-03-26T17:55:46.424Z,35.00
2018-03-26T17:58:14.883Z,34.87
2018-03-26T18:00:43.422Z,34.87
2018-03-26T18:03:11.114Z,32.50
2018-03-26T18:05:38.752Z,31.83
2018-03-26T18:08:06.465Z,32.87
2018-03-26T18:10:34.155Z,32.40
2018-03-26T18:13:01.911Z,33.93
2018-03-26T18:15:29.580Z,32.97
2018-03-26T18:17:57.347Z,32.90
2018-03-26T18:20:24.997Z,33.33
2018-03-26T18:22:53.413Z,32.33
2018-03-26T18:25:21.177Z,32.17
2018-03-26T18:27:48.810Z,32.03
2018-03-26T18:30:17.304Z,35.23
2018-03-26T18:32:45.017Z,33.83
2018-03-26T18:35:12.839Z,32.40
2018-03-26T18:37:40.518Z,33.83
2018-03-26T18:40:08.342Z,34.57
2018-03-26T18:42:36.006Z,32.73
2018-03-26T18:45:03.697Z,33.17
2018-03-26T18:47:31.455Z,32.37
2018-03-26T18:49:59.119Z,33.77
2018-03-26T18:52:26.791Z,33.90
2018-03-26T18:54:54.443Z,34.50
2018-03-26T18:57:22.099Z,33.37
2018-03-26T18:59:49.875Z,35.87
2018-03-26T19:02:17.938Z,34.53
2018-03-26T19:04:45.666Z,33.93
2018-03-26T19:07:13.319Z,34.00
2018-03-26T19:09:41.754Z,34.87
2018-03-26T19:12:09.522Z,35.37
2018-03-26T19:14:37.285Z,34.93
2018-03-26T19:17:04.957Z,36.83
2018-03-26T19:19:33.475Z,34.77
2018-03-26T19:22:01.973Z,35.37
2018-03-26T19:24:29.732Z,35.97
2018-03-26T19:26:59.988Z,35.60
2018-03-26T19:29:27.681Z,35.53
2018-03-26T19:31:55.441Z,34.67
2018-03-26T19:34:23.408Z,36.63
2018-03-26T19:36:52.372Z,32.87
2018-03-26T19:39:20.130Z,35.23
2018-03-26T19:41:47.935Z,34.73
2018-03-26T19:44:15.658Z,34.87
2018-03-26T19:46:43.380Z,35.90
2018-03-26T19:49:11.902Z,34.93
2018-03-26T19:51:39.622Z,35.50
2018-03-26T19:54:07.261Z,35.10
2018-03-26T19:56:35.195Z,35.53
2018-03-26T19:59:02.866Z,33.90
2018-03-26T20:01:30.513Z,33.87
2018-03-26T20:03:58.233Z,34.20
2018-03-26T20:06:25.884Z,34.33
2018-03-26T20:08:53.639Z,34.10
2018-03-26T20:11:21.360Z,34.20
2018-03-26T20:13:50.038Z,35.13
2018-03-26T20:16:18.000Z,34.43
2018-03-26T20:18:45.673Z,36.37
2018-03-26T20:21:14.179Z,36.73
2018-03-26T20:23:42.682Z,34.17
2018-03-26T20:26:11.438Z,36.53
2018-03-26T20:28:39.121Z,34.27
2018-03-26T20:31:06.833Z,34.93
2018-03-26T20:33:34.490Z,33.43
2018-03-26T20:36:02.157Z,34.23
2018-03-26T20:38:29.879Z,35.33
2018-03-26T20:40:57.543Z,35.77
2018-03-26T20:43:25.215Z,35.83
2018-03-26T20:45:52.920Z,36.07
2018-03-26T20:48:20.692Z,35.23
2018-03-26T20:50:48.351Z,33.93
2018-03-26T20:53:16.010Z,34.17
2018-03-26T20:55:43.665Z,34.17
2018-03-26T20:58:11.418Z,33.40
2018-03-26T21:00:39.205Z,33.83
2018-03-26T21:03:06.847Z,34.53
2018-03-26T21:05:34.520Z,34.27
2018-03-26T21:08:02.218Z,34.40
2018-03-26T21:10:29.880Z,33.97
2018-03-26T21:12:58.008Z,34.07
2018-03-26T21:15:25.706Z,34.97
2018-03-26T21:17:54.306Z,33.70
2018-03-26T21:20:22.046Z,36.17
2018-03-26T21:22:49.714Z,35.23
2018-03-26T21:25:17.341Z,37.40
2018-03-26T21:27:45.072Z,36.13
2018-03-26T21:30:12.852Z,35.80
2018-03-26T21:32:40.598Z,37.77
2018-03-26T21:35:10.348Z,34.97
2018-03-26T21:37:39.194Z,34.40
2018-03-26T21:40:07.614Z,34.97
2018-03-26T21:42:36.177Z,34.67
2018-03-26T21:45:03.875Z,36.37
2018-03-26T21:47:31.597Z,34.40
2018-03-26T21:50:00.048Z,37.33
2018-03-26T21:52:27.705Z,35.87
2018-03-26T21:54:55.432Z,36.23
2018-03-26T21:57:23.117Z,35.10
2018-03-26T21:59:50.778Z,34.90
2018-03-26T22:02:18.441Z,35.37
2018-03-26T22:04:46.898Z,35.93
2018-03-26T22:07:14.550Z,36.13
2018-03-26T22:09:42.739Z,34.43
2018-03-26T22:12:10.456Z,35.27
2018-03-26T22:14:38.175Z,34.87
2018-03-26T22:17:05.914Z,35.43
2018-03-26T22:19:33.642Z,34.27
2018-03-26T22:22:02.314Z,33.07
2018-03-26T22:24:31.867Z,35.43
2018-03-26T22:26:59.533Z,36.60
2018-03-26T22:29:27.199Z,35.20
2018-03-26T22:31:54.855Z,37.20
2018-03-26T22:34:22.482Z,36.47
2018-03-26T22:36:50.174Z,37.23
2018-03-26T22:39:19.224Z,35.13
2018-03-26T22:41:47.785Z,36.27
2018-03-26T22:44:16.228Z,34.13
2018-03-26T22:46:44.976Z,36.50
2018-03-26T22:49:12.735Z,34.70
2018-03-26T22:51:40.340Z,38.60
2018-03-26T22:54:08.002Z,35.90
2018-03-26T22:56:35.741Z,36.80
2018-03-26T22:59:03.373Z,39.07
2018-03-26T23:01:31.761Z,36.73
2018-03-26T23:03:59.424Z,37.53
2018-03-26T23:06:27.190Z,37.30
2018-03-26T23:08:54.792Z,37.60
2018-03-26T23:11:22.464Z,37.63
2018-03-26T23:13:50.133Z,35.87
2018-03-26T23:16:18.020Z,38.67
2018-03-26T23:18:46.430Z,38.40
2018-03-26T23:21:14.102Z,37.33
2018-03-26T23:23:42.922Z,38.53
2018-03-26T23:26:10.648Z,38.20
2018-03-26T23:28:38.652Z,38.60
2018-03-26T23:31:06.284Z,37.87
2018-03-26T23:33:33.921Z,37.73
2018-03-26T23:36:01.582Z,36.47
2018-03-26T23:38:29.244Z,36.87
2018-03-26T23:40:56.959Z,36.63
2018-03-26T23:43:24.671Z,36.67
2018-03-26T23:45:53.866Z,38.70
2018-03-26T23:48:22.592Z,35.53
2018-03-26T23:50:50.277Z,36.47
2018-03-26T23:53:17.926Z,37.40
2018-03-26T23:55:45.601Z,35.63
2018-03-26T23:58:13.266Z,36.13
